meteoblue

Στατιστικά Καιρού & Άλλα..









Δείκτης Πυρκαγιάς (FWI)

Καστελόκαμπος Ρίον more information Kastelokampos Rion


Κάμερα Ρομανού more information Romanos Cam


Ραντάρ Κεραυνών more information blitzortung!


Ραντάρ Βροχής more information rain snow radar


Επισκεφθείτε άλλες ιστοσελίδες καιρού μας:

Meteopatras.Eu in
Euweather NetworkMeteopatras.Eu in Euweather Network

Weather CloudWeather Cloud

PWS WeatherPWS Weather

Awekas NetWeather data from station Patra-Ketx

WunderGroundWeather data from station Patra-Ketx



Θυελλώδεις Άνεμοι Από : 08-12-2021 04:00 Μέχρι : 13:00 προειδοποίηση για : Θυελλώδεις Άνεμοι Επίπεδο : Κίτρινο info button

Ιδιοκτησία και Επίβλεψη : Μουλάς Αντρέας

 Πάτρα, Ελλάδα - Γ.Πλάτος : 38°14'21" Β - Γ.Μήκος : 21°45'5" Α - Υψόμετρο : 56μ

Κοντινές Αναφορές METAR

   
EBBR - Brussels International Airport, Belgium
Απόσταση από τον σταθμό: Δ 14 km
Ενημερώθηκε: 08-12-2021 10:20
Κυρίως Συννεφιά  
Κυρίως Συννεφιά  
   Άνεμος: ΝΝΔ 22.2 km/h
Άνεμος: ΝΝΔ 22.2 km/h
Θερμοκρασία: 5°C
Δείκτης Ψυχρότητας: 1°C
Σημείο Δρόσου: 1°C
Υγρασία: 76%
Βαρόμετρο: 995 hPa
Σύννεφα: Κυρίως Συννεφιά
Ορατότητα: More than 10 km
Λεπτομέρειες Σύννεφου: Κυρίως Αίθριος 2100 ft,
Κυρίως Συννεφιά 4700 ft
EBBR 080820Z 21012KT 9999 FEW021 BKN047 05/01 Q0995 NOSIG
EBBE - Beauvechain (Bevekom), Belgium
Απόσταση από τον σταθμό: ΝΝΑ 17 km
Ενημερώθηκε: 08-12-2021 10:25
Μερικώς Νεφελώδης  
Μερικώς Νεφελώδης  
   Άνεμος: ΝΝΔ 24.1 km/h
Άνεμος: ΝΝΔ 24.1 km/h
Θερμοκρασία: 4°C
Δείκτης Ψυχρότητας: -1°C
Σημείο Δρόσου: 1°C
Υγρασία: 81%
Βαρόμετρο: 996 hPa
Σύννεφα: Μερικώς Νεφελώδης
Ορατότητα: More than 10 km
Λεπτομέρειες Σύννεφου: Κυρίως Αίθριος 1800 ft,
Μερικώς Νεφελώδης 2100 ft
EBBE 080825Z 20013KT 9999 FEW018 SCT021 04/01 Q0996 WHT BLU TEMPO WHT
EBDT - Schaffen, Belgium
Απόσταση από τον σταθμό: ΑΒΑ 29 km
Ενημερώθηκε: 08-12-2021 10:25
Κυρίως Συννεφιά  
Κυρίως Συννεφιά  
   Άνεμος: ΝΝΔ 16.7 km/h
Άνεμος: ΝΝΔ 16.7 km/h
Θερμοκρασία: 5°C
Δείκτης Ψυχρότητας: 2°C
Σημείο Δρόσου: 1°C
Υγρασία: 76%
Βαρόμετρο: 996 hPa
Σύννεφα: Κυρίως Συννεφιά
Ορατότητα: More than 10 km
Λεπτομέρειες Σύννεφου: Κυρίως Συννεφιά 2400 ft
EBDT 080825Z AUTO 20009KT 9999 BKN024/// 05/01 Q0996 WHT
EBAW - Antwerp/Deurne, Belgium
Απόσταση από τον σταθμό: ΒΒΔ 38 km
Ενημερώθηκε: 08-12-2021 10:20
Κυρίως Συννεφιά  
Κυρίως Συννεφιά  
   Άνεμος: Νότος 18.5 km/h
Άνεμος: Νότος 18.5 km/h
Θερμοκρασία: 5°C
Δείκτης Ψυχρότητας: 1°C
Σημείο Δρόσου: 1°C
Υγρασία: 76%
Βαρόμετρο: 995 hPa
Σύννεφα: Κυρίως Συννεφιά
Ορατότητα: More than 10 km
Λεπτομέρειες Σύννεφου: Κυρίως Συννεφιά 2200 ft
EBAW 080820Z 19010KT 9999 BKN022 05/01 Q0995 NOSIG
EBCI - Charleroi/Gosselies, Belgium
Απόσταση από τον σταθμό: ΝΝΔ 51 km
Ενημερώθηκε: 08-12-2021 10:20
Μερικώς Νεφελώδης  
Μερικώς Νεφελώδης  
   Άνεμος: ΝΝΔ 25.9 km/h
Άνεμος: ΝΝΔ 25.9 km/h
Θερμοκρασία: 4°C
Δείκτης Ψυχρότητας: -1°C
Σημείο Δρόσου: 1°C
Υγρασία: 81%
Βαρόμετρο: 996 hPa
Σύννεφα: Μερικώς Νεφελώδης
Ορατότητα: More than 10 km
Λεπτομέρειες Σύννεφου: Κυρίως Αίθριος 1200 ft,
Μερικώς Νεφελώδης 1900 ft
EBCI 080820Z 21014KT 9999 FEW012 SCT019 04/01 Q0996 NOSIG
EBLG - Bierset/Liege, Belgium
Απόσταση από τον σταθμό: ΑΝΑ 60 km
Ενημερώθηκε: 08-12-2021 10:20
Κυρίως Συννεφιά  
Κυρίως Συννεφιά  
   Άνεμος: ΝΔ 20.4 km/h
Άνεμος: ΝΔ 20.4 km/h
Θερμοκρασία: 5°C
Δείκτης Ψυχρότητας: 1°C
Σημείο Δρόσου: 1°C
Υγρασία: 76%
Βαρόμετρο: 996 hPa
Σύννεφα: Κυρίως Συννεφιά
Ορατότητα: More than 10 km
Λεπτομέρειες Σύννεφου: Κυρίως Συννεφιά 2100 ft
EBLG 080820Z 22011KT 9999 BKN021 05/01 Q0996 NOSIG

Script developed by  Saratoga-weather.org Προσαρμοσμένος για το πρότυπο του  Weerstation Leuven

Μπορείτε να βρείτε πληροφορίες καιρού μας και σε:

European Weather Network

WeatherCloud

Weather Underground

Δύκτιο Σταθμών Ελλάδας

AWEKAS

HAMweather, WeatherForYou, PWS Weather

MeteoPatras.Eu